sensor_id;sensor_type;location;lat;lon;timestamp;temperature;humidity
55203;DHT22;41077;52.956;6.796;2022-12-31T00:01:13;12.70;99.90
55203;DHT22;41077;52.956;6.796;2022-12-31T00:03:40;12.60;99.90
55203;DHT22;41077;52.956;6.796;2022-12-31T00:06:25;12.50;99.90
55203;DHT22;41077;52.956;6.796;2022-12-31T00:09:00;12.50;99.90
55203;DHT22;41077;52.956;6.796;2022-12-31T00:11:28;12.40;99.90
55203;DHT22;41077;52.956;6.796;2022-12-31T00:13:55;12.40;99.90
55203;DHT22;41077;52.956;6.796;2022-12-31T00:16:24;12.30;99.90
55203;DHT22;41077;52.956;6.796;2022-12-31T00:18:54;12.20;99.90
55203;DHT22;41077;52.956;6.796;2022-12-31T00:21:20;12.20;99.90
55203;DHT22;41077;52.956;6.796;2022-12-31T00:23:47;12.10;99.90
55203;DHT22;41077;52.956;6.796;2022-12-31T00:26:15;12.10;99.90
55203;DHT22;41077;52.956;6.796;2022-12-31T00:28:42;12.10;99.90
55203;DHT22;41077;52.956;6.796;2022-12-31T00:31:11;12.10;99.90
55203;DHT22;41077;52.956;6.796;2022-12-31T00:33:39;12.10;99.90
55203;DHT22;41077;52.956;6.796;2022-12-31T00:36:19;12.20;99.90
55203;DHT22;41077;52.956;6.796;2022-12-31T00:38:47;12.10;99.90
55203;DHT22;41077;52.956;6.796;2022-12-31T00:41:13;12.20;99.90
55203;DHT22;41077;52.956;6.796;2022-12-31T00:43:40;12.20;99.90
55203;DHT22;41077;52.956;6.796;2022-12-31T00:46:07;12.30;99.90
55203;DHT22;41077;52.956;6.796;2022-12-31T00:48:33;12.20;99.90
55203;DHT22;41077;52.956;6.796;2022-12-31T00:51:00;12.20;99.90
55203;DHT22;41077;52.956;6.796;2022-12-31T00:53:27;12.40;99.90
55203;DHT22;41077;52.956;6.796;2022-12-31T00:56:02;12.30;99.90
55203;DHT22;41077;52.956;6.796;2022-12-31T00:58:29;12.40;99.90
55203;DHT22;41077;52.956;6.796;2022-12-31T01:00:55;12.30;99.90
55203;DHT22;41077;52.956;6.796;2022-12-31T01:03:20;12.30;99.90
55203;DHT22;41077;52.956;6.796;2022-12-31T01:05:46;12.30;99.90
55203;DHT22;41077;52.956;6.796;2022-12-31T01:08:12;12.40;99.90
55203;DHT22;41077;52.956;6.796;2022-12-31T01:10:38;12.40;99.90
55203;DHT22;41077;52.956;6.796;2022-12-31T01:13:22;12.30;99.90
55203;DHT22;41077;52.956;6.796;2022-12-31T01:15:47;12.30;99.90
55203;DHT22;41077;52.956;6.796;2022-12-31T01:18:13;12.30;99.90
55203;DHT22;41077;52.956;6.796;2022-12-31T01:20:41;12.30;99.90
55203;DHT22;41077;52.956;6.796;2022-12-31T01:23:08;12.30;99.90
55203;DHT22;41077;52.956;6.796;2022-12-31T01:25:35;12.40;99.90
55203;DHT22;41077;52.956;6.796;2022-12-31T01:28:02;12.40;99.90
55203;DHT22;41077;52.956;6.796;2022-12-31T01:30:28;12.40;99.90
55203;DHT22;41077;52.956;6.796;2022-12-31T01:32:53;12.40;99.90
55203;DHT22;41077;52.956;6.796;2022-12-31T01:35:19;12.40;99.90
55203;DHT22;41077;52.956;6.796;2022-12-31T01:37:45;12.40;99.90
55203;DHT22;41077;52.956;6.796;2022-12-31T01:40:11;12.40;99.90
55203;DHT22;41077;52.956;6.796;2022-12-31T01:42:37;12.40;99.90
55203;DHT22;41077;52.956;6.796;2022-12-31T01:45:04;12.40;99.90
55203;DHT22;41077;52.956;6.796;2022-12-31T01:47:38;12.40;99.90
55203;DHT22;41077;52.956;6.796;2022-12-31T01:50:29;12.40;99.90
55203;DHT22;41077;52.956;6.796;2022-12-31T01:53:01;12.40;99.90
55203;DHT22;41077;52.956;6.796;2022-12-31T01:55:56;12.40;99.90
55203;DHT22;41077;52.956;6.796;2022-12-31T01:58:27;12.30;99.90
55203;DHT22;41077;52.956;6.796;2022-12-31T02:00:54;12.30;99.90
55203;DHT22;41077;52.956;6.796;2022-12-31T02:03:22;12.30;99.90
55203;DHT22;41077;52.956;6.796;2022-12-31T02:06:02;12.30;99.90
55203;DHT22;41077;52.956;6.796;2022-12-31T02:08:29;12.20;99.90
55203;DHT22;41077;52.956;6.796;2022-12-31T02:10:55;12.20;99.90
55203;DHT22;41077;52.956;6.796;2022-12-31T02:13:21;12.20;99.90
55203;DHT22;41077;52.956;6.796;2022-12-31T02:16:10;12.20;99.90
55203;DHT22;41077;52.956;6.796;2022-12-31T02:18:44;12.20;99.90
55203;DHT22;41077;52.956;6.796;2022-12-31T02:21:32;12.20;99.90
55203;DHT22;41077;52.956;6.796;2022-12-31T02:24:11;12.20;99.90
55203;DHT22;41077;52.956;6.796;2022-12-31T02:26:58;12.20;99.90
55203;DHT22;41077;52.956;6.796;2022-12-31T02:35:55;12.10;99.90
55203;DHT22;41077;52.956;6.796;2022-12-31T02:38:11;12.10;99.90
55203;DHT22;41077;52.956;6.796;2022-12-31T02:40:39;12.10;99.90
55203;DHT22;41077;52.956;6.796;2022-12-31T02:43:04;12.10;99.90
55203;DHT22;41077;52.956;6.796;2022-12-31T02:45:36;12.00;99.90
55203;DHT22;41077;52.956;6.796;2022-12-31T02:48:38;12.00;99.90
55203;DHT22;41077;52.956;6.796;2022-12-31T02:54:02;11.90;99.90
55203;DHT22;41077;52.956;6.796;2022-12-31T02:56:40;11.90;99.90
55203;DHT22;41077;52.956;6.796;2022-12-31T03:02:32;11.90;99.90
55203;DHT22;41077;52.956;6.796;2022-12-31T03:05:00;11.90;99.90
55203;DHT22;41077;52.956;6.796;2022-12-31T03:07:29;11.90;99.90
55203;DHT22;41077;52.956;6.796;2022-12-31T03:09:56;11.90;99.90
55203;DHT22;41077;52.956;6.796;2022-12-31T03:12:25;11.90;99.90
55203;DHT22;41077;52.956;6.796;2022-12-31T03:15:10;11.90;99.90
55203;DHT22;41077;52.956;6.796;2022-12-31T03:20:13;11.80;99.90
55203;DHT22;41077;52.956;6.796;2022-12-31T03:22:57;11.60;99.90
55203;DHT22;41077;52.956;6.796;2022-12-31T03:25:22;11.60;99.90
55203;DHT22;41077;52.956;6.796;2022-12-31T03:28:02;11.50;99.90
55203;DHT22;41077;52.956;6.796;2022-12-31T03:30:28;11.50;99.90
55203;DHT22;41077;52.956;6.796;2022-12-31T03:32:55;11.50;99.90
55203;DHT22;41077;52.956;6.796;2022-12-31T03:35:21;11.50;99.90
55203;DHT22;41077;52.956;6.796;2022-12-31T03:37:48;11.50;99.90
55203;DHT22;41077;52.956;6.796;2022-12-31T03:40:15;11.50;99.90
55203;DHT22;41077;52.956;6.796;2022-12-31T03:42:41;11.40;99.90
55203;DHT22;41077;52.956;6.796;2022-12-31T03:45:08;11.40;99.90
55203;DHT22;41077;52.956;6.796;2022-12-31T03:47:34;11.40;99.90
55203;DHT22;41077;52.956;6.796;2022-12-31T03:50:01;11.30;99.90
55203;DHT22;41077;52.956;6.796;2022-12-31T03:52:26;11.40;99.90
55203;DHT22;41077;52.956;6.796;2022-12-31T03:54:52;11.40;99.90
55203;DHT22;41077;52.956;6.796;2022-12-31T03:57:18;11.30;99.90
55203;DHT22;41077;52.956;6.796;2022-12-31T03:59:43;11.40;99.90
55203;DHT22;41077;52.956;6.796;2022-12-31T04:02:09;11.40;99.90
55203;DHT22;41077;52.956;6.796;2022-12-31T04:04:35;11.30;99.90
55203;DHT22;41077;52.956;6.796;2022-12-31T04:07:00;11.30;99.90
55203;DHT22;41077;52.956;6.796;2022-12-31T04:09:26;11.30;99.90
55203;DHT22;41077;52.956;6.796;2022-12-31T04:11:52;11.40;99.90
55203;DHT22;41077;52.956;6.796;2022-12-31T04:14:17;11.40;99.90
55203;DHT22;41077;52.956;6.796;2022-12-31T04:16:43;11.30;99.90
55203;DHT22;41077;52.956;6.796;2022-12-31T04:19:10;11.30;99.90
55203;DHT22;41077;52.956;6.796;2022-12-31T04:21:35;11.30;99.90
55203;DHT22;41077;52.956;6.796;2022-12-31T04:24:01;11.30;99.90
55203;DHT22;41077;52.956;6.796;2022-12-31T04:26:28;11.30;99.90
55203;DHT22;41077;52.956;6.796;2022-12-31T04:28:53;11.30;99.90
55203;DHT22;41077;52.956;6.796;2022-12-31T04:31:19;11.30;99.90
55203;DHT22;41077;52.956;6.796;2022-12-31T04:33:45;11.30;99.90
55203;DHT22;41077;52.956;6.796;2022-12-31T04:36:10;11.30;99.90
55203;DHT22;41077;52.956;6.796;2022-12-31T04:38:36;11.30;99.90
55203;DHT22;41077;52.956;6.796;2022-12-31T04:41:02;11.30;99.90
55203;DHT22;41077;52.956;6.796;2022-12-31T04:43:49;11.30;99.90
55203;DHT22;41077;52.956;6.796;2022-12-31T04:46:17;11.30;99.90
55203;DHT22;41077;52.956;6.796;2022-12-31T04:48:43;11.30;99.90
55203;DHT22;41077;52.956;6.796;2022-12-31T04:51:10;11.30;99.90
55203;DHT22;41077;52.956;6.796;2022-12-31T04:53:36;11.30;99.90
55203;DHT22;41077;52.956;6.796;2022-12-31T04:56:02;11.30;99.90
55203;DHT22;41077;52.956;6.796;2022-12-31T04:58:28;11.40;99.90
55203;DHT22;41077;52.956;6.796;2022-12-31T05:00:54;11.30;99.90
55203;DHT22;41077;52.956;6.796;2022-12-31T05:03:21;11.40;99.90
55203;DHT22;41077;52.956;6.796;2022-12-31T05:05:47;11.40;99.90
55203;DHT22;41077;52.956;6.796;2022-12-31T05:08:14;11.40;99.90
55203;DHT22;41077;52.956;6.796;2022-12-31T05:10:45;11.50;99.90
55203;DHT22;41077;52.956;6.796;2022-12-31T05:13:11;11.40;99.90
55203;DHT22;41077;52.956;6.796;2022-12-31T05:15:37;11.40;99.90
55203;DHT22;41077;52.956;6.796;2022-12-31T05:18:03;11.40;99.90
55203;DHT22;41077;52.956;6.796;2022-12-31T05:20:29;11.40;99.90
55203;DHT22;41077;52.956;6.796;2022-12-31T05:22:55;11.40;99.90
55203;DHT22;41077;52.956;6.796;2022-12-31T05:25:20;11.30;99.90
55203;DHT22;41077;52.956;6.796;2022-12-31T05:27:46;11.30;99.90
55203;DHT22;41077;52.956;6.796;2022-12-31T05:30:12;11.40;99.90
55203;DHT22;41077;52.956;6.796;2022-12-31T05:32:38;11.40;99.90
55203;DHT22;41077;52.956;6.796;2022-12-31T05:35:04;11.30;99.90
55203;DHT22;41077;52.956;6.796;2022-12-31T05:37:30;11.30;99.90
55203;DHT22;41077;52.956;6.796;2022-12-31T05:39:56;11.30;99.90
55203;DHT22;41077;52.956;6.796;2022-12-31T05:42:23;11.30;99.90
55203;DHT22;41077;52.956;6.796;2022-12-31T05:44:49;11.20;99.90
55203;DHT22;41077;52.956;6.796;2022-12-31T05:47:14;11.20;99.90
55203;DHT22;41077;52.956;6.796;2022-12-31T05:49:40;11.20;99.90
55203;DHT22;41077;52.956;6.796;2022-12-31T05:52:06;11.20;99.90
55203;DHT22;41077;52.956;6.796;2022-12-31T05:54:32;11.20;99.90
55203;DHT22;41077;52.956;6.796;2022-12-31T05:56:58;11.20;99.90
55203;DHT22;41077;52.956;6.796;2022-12-31T05:59:24;11.20;99.90
55203;DHT22;41077;52.956;6.796;2022-12-31T06:01:50;11.20;99.90
55203;DHT22;41077;52.956;6.796;2022-12-31T06:04:16;11.20;99.90
55203;DHT22;41077;52.956;6.796;2022-12-31T06:06:42;11.20;99.90
55203;DHT22;41077;52.956;6.796;2022-12-31T06:09:08;11.20;99.90
55203;DHT22;41077;52.956;6.796;2022-12-31T06:11:34;11.20;99.90
55203;DHT22;41077;52.956;6.796;2022-12-31T06:13:59;11.30;99.90
55203;DHT22;41077;52.956;6.796;2022-12-31T06:16:25;11.20;99.90
55203;DHT22;41077;52.956;6.796;2022-12-31T06:18:51;11.30;99.90
55203;DHT22;41077;52.956;6.796;2022-12-31T06:21:19;11.30;99.90
55203;DHT22;41077;52.956;6.796;2022-12-31T06:23:45;11.40;99.90
55203;DHT22;41077;52.956;6.796;2022-12-31T06:26:11;11.40;99.90
55203;DHT22;41077;52.956;6.796;2022-12-31T06:28:37;11.40;99.90
55203;DHT22;41077;52.956;6.796;2022-12-31T06:31:05;11.40;99.90
55203;DHT22;41077;52.956;6.796;2022-12-31T06:33:32;11.40;99.90
55203;DHT22;41077;52.956;6.796;2022-12-31T06:35:59;11.40;99.90
55203;DHT22;41077;52.956;6.796;2022-12-31T06:38:27;11.50;99.90
55203;DHT22;41077;52.956;6.796;2022-12-31T06:40:53;11.50;99.90
55203;DHT22;41077;52.956;6.796;2022-12-31T06:43:19;11.50;99.90
55203;DHT22;41077;52.956;6.796;2022-12-31T06:45:45;11.40;99.90
55203;DHT22;41077;52.956;6.796;2022-12-31T06:48:11;11.40;99.90
55203;DHT22;41077;52.956;6.796;2022-12-31T06:50:37;11.40;99.90
55203;DHT22;41077;52.956;6.796;2022-12-31T06:53:03;11.40;99.90
55203;DHT22;41077;52.956;6.796;2022-12-31T06:55:29;11.30;99.90
55203;DHT22;41077;52.956;6.796;2022-12-31T06:57:55;11.30;99.90
55203;DHT22;41077;52.956;6.796;2022-12-31T07:00:21;11.30;99.90
55203;DHT22;41077;52.956;6.796;2022-12-31T07:05:49;11.30;99.90
55203;DHT22;41077;52.956;6.796;2022-12-31T07:19:19;11.20;99.90
55203;DHT22;41077;52.956;6.796;2022-12-31T07:21:48;11.20;99.90
55203;DHT22;41077;52.956;6.796;2022-12-31T07:24:16;11.20;99.90
55203;DHT22;41077;52.956;6.796;2022-12-31T07:35:47;11.10;99.90
55203;DHT22;41077;52.956;6.796;2022-12-31T07:38:36;11.10;99.90
55203;DHT22;41077;52.956;6.796;2022-12-31T07:44:15;11.10;99.90
55203;DHT22;41077;52.956;6.796;2022-12-31T07:46:58;11.10;99.90
55203;DHT22;41077;52.956;6.796;2022-12-31T07:49:25;11.10;99.90
55203;DHT22;41077;52.956;6.796;2022-12-31T07:51:52;11.10;99.90
55203;DHT22;41077;52.956;6.796;2022-12-31T07:54:18;11.20;99.90
55203;DHT22;41077;52.956;6.796;2022-12-31T07:56:45;11.20;99.90
55203;DHT22;41077;52.956;6.796;2022-12-31T08:05:32;11.20;99.90
55203;DHT22;41077;52.956;6.796;2022-12-31T08:13:44;11.40;99.90
55203;DHT22;41077;52.956;6.796;2022-12-31T08:16:11;11.30;99.90
55203;DHT22;41077;52.956;6.796;2022-12-31T08:18:38;11.40;99.90
55203;DHT22;41077;52.956;6.796;2022-12-31T08:26:54;11.60;99.90
55203;DHT22;41077;52.956;6.796;2022-12-31T08:29:39;11.60;99.90
55203;DHT22;41077;52.956;6.796;2022-12-31T08:32:11;11.50;99.90
55203;DHT22;41077;52.956;6.796;2022-12-31T08:34:57;11.50;99.90
55203;DHT22;41077;52.956;6.796;2022-12-31T08:38:30;11.50;99.90
55203;DHT22;41077;52.956;6.796;2022-12-31T08:46:01;11.50;99.90
55203;DHT22;41077;52.956;6.796;2022-12-31T08:48:42;11.50;99.90
55203;DHT22;41077;52.956;6.796;2022-12-31T08:51:16;11.60;99.90
55203;DHT22;41077;52.956;6.796;2022-12-31T08:53:42;11.60;99.90
55203;DHT22;41077;52.956;6.796;2022-12-31T08:56:20;11.60;99.90
55203;DHT22;41077;52.956;6.796;2022-12-31T08:58:50;11.70;99.90
55203;DHT22;41077;52.956;6.796;2022-12-31T09:01:24;11.80;99.90
55203;DHT22;41077;52.956;6.796;2022-12-31T09:04:04;11.90;99.90
55203;DHT22;41077;52.956;6.796;2022-12-31T09:06:52;12.00;99.90
55203;DHT22;41077;52.956;6.796;2022-12-31T09:14:58;12.30;99.90
55203;DHT22;41077;52.956;6.796;2022-12-31T09:17:48;12.40;99.90
55203;DHT22;41077;52.956;6.796;2022-12-31T09:20:26;12.50;99.90
55203;DHT22;41077;52.956;6.796;2022-12-31T09:22:53;12.60;99.90
55203;DHT22;41077;52.956;6.796;2022-12-31T09:25:21;12.80;99.90
55203;DHT22;41077;52.956;6.796;2022-12-31T09:27:56;12.80;99.90
55203;DHT22;41077;52.956;6.796;2022-12-31T09:30:27;12.90;99.90
55203;DHT22;41077;52.956;6.796;2022-12-31T09:33:09;13.00;99.90
55203;DHT22;41077;52.956;6.796;2022-12-31T09:35:42;13.00;99.90
55203;DHT22;41077;52.956;6.796;2022-12-31T09:40:53;13.00;99.90
55203;DHT22;41077;52.956;6.796;2022-12-31T09:57:40;13.20;99.90
55203;DHT22;41077;52.956;6.796;2022-12-31T10:00:20;13.20;99.90
55203;DHT22;41077;52.956;6.796;2022-12-31T10:06:02;13.30;99.90
55203;DHT22;41077;52.956;6.796;2022-12-31T10:08:39;13.30;99.90
55203;DHT22;41077;52.956;6.796;2022-12-31T10:30:22;13.60;99.90
55203;DHT22;41077;52.956;6.796;2022-12-31T10:33:15;13.60;99.90
55203;DHT22;41077;52.956;6.796;2022-12-31T10:35:53;13.70;99.90
55203;DHT22;41077;52.956;6.796;2022-12-31T10:55:36;14.00;99.90
55203;DHT22;41077;52.956;6.796;2022-12-31T10:58:42;14.10;99.90
55203;DHT22;41077;52.956;6.796;2022-12-31T11:14:50;14.00;99.90
55203;DHT22;41077;52.956;6.796;2022-12-31T11:17:40;14.10;99.90
55203;DHT22;41077;52.956;6.796;2022-12-31T11:20:50;14.00;99.90
55203;DHT22;41077;52.956;6.796;2022-12-31T11:24:22;14.00;99.90
55203;DHT22;41077;52.956;6.796;2022-12-31T11:32:16;13.80;99.90
55203;DHT22;41077;52.956;6.796;2022-12-31T11:34:50;13.70;99.90
55203;DHT22;41077;52.956;6.796;2022-12-31T11:37:57;13.60;99.90
55203;DHT22;41077;52.956;6.796;2022-12-31T11:40:42;13.60;99.90
55203;DHT22;41077;52.956;6.796;2022-12-31T11:43:22;13.60;99.90
55203;DHT22;41077;52.956;6.796;2022-12-31T11:49:00;13.60;99.90
55203;DHT22;41077;52.956;6.796;2022-12-31T11:51:52;13.60;99.90
55203;DHT22;41077;52.956;6.796;2022-12-31T11:57:36;13.60;99.90
55203;DHT22;41077;52.956;6.796;2022-12-31T12:02:35;13.60;99.90
55203;DHT22;41077;52.956;6.796;2022-12-31T12:05:04;13.70;99.90
55203;DHT22;41077;52.956;6.796;2022-12-31T12:07:31;13.70;99.90
55203;DHT22;41077;52.956;6.796;2022-12-31T12:10:00;13.80;99.90
55203;DHT22;41077;52.956;6.796;2022-12-31T12:12:38;13.90;99.90
55203;DHT22;41077;52.956;6.796;2022-12-31T12:15:10;13.90;99.90
55203;DHT22;41077;52.956;6.796;2022-12-31T12:17:36;14.10;99.90
55203;DHT22;41077;52.956;6.796;2022-12-31T12:20:17;14.00;99.90
55203;DHT22;41077;52.956;6.796;2022-12-31T12:22:51;14.00;99.90
55203;DHT22;41077;52.956;6.796;2022-12-31T12:25:21;14.20;99.90
55203;DHT22;41077;52.956;6.796;2022-12-31T12:27:47;14.20;99.90
55203;DHT22;41077;52.956;6.796;2022-12-31T12:32:56;14.30;99.90
55203;DHT22;41077;52.956;6.796;2022-12-31T12:35:28;14.30;99.90
55203;DHT22;41077;52.956;6.796;2022-12-31T12:38:16;14.40;99.90
55203;DHT22;41077;52.956;6.796;2022-12-31T12:40:52;14.40;99.90
55203;DHT22;41077;52.956;6.796;2022-12-31T12:43:33;14.40;99.90
55203;DHT22;41077;52.956;6.796;2022-12-31T12:46:05;14.40;99.90
55203;DHT22;41077;52.956;6.796;2022-12-31T12:48:37;14.50;99.90
55203;DHT22;41077;52.956;6.796;2022-12-31T12:54:01;14.50;99.90
55203;DHT22;41077;52.956;6.796;2022-12-31T13:16:29;14.30;99.90
55203;DHT22;41077;52.956;6.796;2022-12-31T13:21:43;14.20;99.90
55203;DHT22;41077;52.956;6.796;2022-12-31T13:27:11;14.10;99.90
55203;DHT22;41077;52.956;6.796;2022-12-31T13:29:40;14.10;99.90
55203;DHT22;41077;52.956;6.796;2022-12-31T13:32:08;14.00;99.90
55203;DHT22;41077;52.956;6.796;2022-12-31T13:34:40;14.00;99.90
55203;DHT22;41077;52.956;6.796;2022-12-31T13:37:39;13.90;99.90
55203;DHT22;41077;52.956;6.796;2022-12-31T13:40:26;13.70;99.90
55203;DHT22;41077;52.956;6.796;2022-12-31T13:42:58;13.70;99.90
55203;DHT22;41077;52.956;6.796;2022-12-31T13:45:32;13.60;99.90
55203;DHT22;41077;52.956;6.796;2022-12-31T13:48:06;13.50;99.90
55203;DHT22;41077;52.956;6.796;2022-12-31T13:50:41;13.50;99.90
55203;DHT22;41077;52.956;6.796;2022-12-31T13:55:59;13.30;99.90
55203;DHT22;41077;52.956;6.796;2022-12-31T13:58:34;13.40;99.90
55203;DHT22;41077;52.956;6.796;2022-12-31T14:01:27;13.30;99.90
55203;DHT22;41077;52.956;6.796;2022-12-31T14:04:06;13.30;99.90
55203;DHT22;41077;52.956;6.796;2022-12-31T14:06:43;13.30;99.90
55203;DHT22;41077;52.956;6.796;2022-12-31T14:09:25;13.30;99.90
55203;DHT22;41077;52.956;6.796;2022-12-31T14:12:20;13.30;99.90
55203;DHT22;41077;52.956;6.796;2022-12-31T14:20:13;13.40;99.90
55203;DHT22;41077;52.956;6.796;2022-12-31T14:25:43;13.50;99.90
55203;DHT22;41077;52.956;6.796;2022-12-31T14:28:20;13.50;99.90
55203;DHT22;41077;52.956;6.796;2022-12-31T14:30:52;13.50;99.90
55203;DHT22;41077;52.956;6.796;2022-12-31T14:33:43;13.60;99.90
55203;DHT22;41077;52.956;6.796;2022-12-31T14:38:53;13.50;99.90
55203;DHT22;41077;52.956;6.796;2022-12-31T14:44:33;13.60;99.90
55203;DHT22;41077;52.956;6.796;2022-12-31T14:50:10;13.60;99.90
55203;DHT22;41077;52.956;6.796;2022-12-31T14:55:36;13.70;99.90
55203;DHT22;41077;52.956;6.796;2022-12-31T14:58:52;13.80;99.90
55203;DHT22;41077;52.956;6.796;2022-12-31T15:00:54;13.80;99.90
55203;DHT22;41077;52.956;6.796;2022-12-31T15:03:22;13.90;99.90
55203;DHT22;41077;52.956;6.796;2022-12-31T15:06:06;13.80;99.90
55203;DHT22;41077;52.956;6.796;2022-12-31T15:17:03;14.00;99.90
55203;DHT22;41077;52.956;6.796;2022-12-31T15:19:44;13.90;99.90
55203;DHT22;41077;52.956;6.796;2022-12-31T15:22:29;13.80;99.90
55203;DHT22;41077;52.956;6.796;2022-12-31T15:24:58;13.80;99.90
55203;DHT22;41077;52.956;6.796;2022-12-31T15:27:35;13.80;99.90
55203;DHT22;41077;52.956;6.796;2022-12-31T15:30:03;13.90;99.90
55203;DHT22;41077;52.956;6.796;2022-12-31T15:32:39;13.90;99.90
55203;DHT22;41077;52.956;6.796;2022-12-31T15:40:48;13.90;99.90
55203;DHT22;41077;52.956;6.796;2022-12-31T15:45:50;14.00;99.90
55203;DHT22;41077;52.956;6.796;2022-12-31T15:48:52;14.10;99.90
55203;DHT22;41077;52.956;6.796;2022-12-31T15:51:29;14.10;99.90
55203;DHT22;41077;52.956;6.796;2022-12-31T15:53:57;14.00;99.90
55203;DHT22;41077;52.956;6.796;2022-12-31T15:56:37;14.00;99.90
55203;DHT22;41077;52.956;6.796;2022-12-31T15:59:12;13.90;99.90
55203;DHT22;41077;52.956;6.796;2022-12-31T16:01:40;14.00;99.90
55203;DHT22;41077;52.956;6.796;2022-12-31T16:04:24;14.00;99.90
55203;DHT22;41077;52.956;6.796;2022-12-31T16:06:51;13.90;99.90
55203;DHT22;41077;52.956;6.796;2022-12-31T16:11:48;14.00;99.90
55203;DHT22;41077;52.956;6.796;2022-12-31T16:14:32;13.90;99.90
55203;DHT22;41077;52.956;6.796;2022-12-31T16:17:00;14.00;99.90
55203;DHT22;41077;52.956;6.796;2022-12-31T16:19:41;14.00;99.90
55203;DHT22;41077;52.956;6.796;2022-12-31T16:22:13;14.00;99.90
55203;DHT22;41077;52.956;6.796;2022-12-31T16:24:39;14.00;99.90
55203;DHT22;41077;52.956;6.796;2022-12-31T16:27:07;13.90;99.90
55203;DHT22;41077;52.956;6.796;2022-12-31T16:29:41;13.90;99.90
55203;DHT22;41077;52.956;6.796;2022-12-31T16:32:15;13.80;99.90
55203;DHT22;41077;52.956;6.796;2022-12-31T16:34:41;13.80;99.90
55203;DHT22;41077;52.956;6.796;2022-12-31T16:37:21;13.70;99.90
55203;DHT22;41077;52.956;6.796;2022-12-31T16:42:26;13.70;99.90
55203;DHT22;41077;52.956;6.796;2022-12-31T16:44:54;13.70;99.90
55203;DHT22;41077;52.956;6.796;2022-12-31T16:47:31;13.60;99.90
55203;DHT22;41077;52.956;6.796;2022-12-31T16:50:06;13.70;99.90
55203;DHT22;41077;52.956;6.796;2022-12-31T16:52:43;13.70;99.90
55203;DHT22;41077;52.956;6.796;2022-12-31T16:55:48;13.70;99.90
55203;DHT22;41077;52.956;6.796;2022-12-31T16:58:14;13.80;99.90
55203;DHT22;41077;52.956;6.796;2022-12-31T17:00:40;13.70;99.90
55203;DHT22;41077;52.956;6.796;2022-12-31T17:03:16;13.60;99.90
55203;DHT22;41077;52.956;6.796;2022-12-31T17:08:48;13.60;99.90
55203;DHT22;41077;52.956;6.796;2022-12-31T17:16:33;13.60;99.90
55203;DHT22;41077;52.956;6.796;2022-12-31T17:18:59;13.60;99.90
55203;DHT22;41077;52.956;6.796;2022-12-31T17:21:28;13.70;99.90
55203;DHT22;41077;52.956;6.796;2022-12-31T17:24:00;13.60;99.90
55203;DHT22;41077;52.956;6.796;2022-12-31T17:26:29;13.60;99.90
55203;DHT22;41077;52.956;6.796;2022-12-31T17:28:56;13.70;99.90
55203;DHT22;41077;52.956;6.796;2022-12-31T17:31:37;13.70;99.90
55203;DHT22;41077;52.956;6.796;2022-12-31T17:36:40;13.80;99.90
55203;DHT22;41077;52.956;6.796;2022-12-31T17:39:25;13.80;99.90
55203;DHT22;41077;52.956;6.796;2022-12-31T17:41:54;13.80;99.90
55203;DHT22;41077;52.956;6.796;2022-12-31T17:44:22;13.90;99.90
55203;DHT22;41077;52.956;6.796;2022-12-31T17:46:50;14.00;99.90
55203;DHT22;41077;52.956;6.796;2022-12-31T17:49:17;14.10;99.90
55203;DHT22;41077;52.956;6.796;2022-12-31T17:51:46;14.20;99.90
55203;DHT22;41077;52.956;6.796;2022-12-31T17:54:16;14.10;99.90
55203;DHT22;41077;52.956;6.796;2022-12-31T17:56:42;14.20;99.90
55203;DHT22;41077;52.956;6.796;2022-12-31T17:59:17;14.20;99.90
55203;DHT22;41077;52.956;6.796;2022-12-31T18:01:43;14.30;99.90
55203;DHT22;41077;52.956;6.796;2022-12-31T18:04:13;14.20;99.90
55203;DHT22;41077;52.956;6.796;2022-12-31T18:06:40;14.20;99.90
55203;DHT22;41077;52.956;6.796;2022-12-31T18:09:06;14.10;99.90
55203;DHT22;41077;52.956;6.796;2022-12-31T18:11:33;14.20;99.90
55203;DHT22;41077;52.956;6.796;2022-12-31T18:13:59;14.20;99.90
55203;DHT22;41077;52.956;6.796;2022-12-31T18:16:25;14.30;99.90
55203;DHT22;41077;52.956;6.796;2022-12-31T18:18:51;14.30;99.90
55203;DHT22;41077;52.956;6.796;2022-12-31T18:21:32;14.20;99.90
55203;DHT22;41077;52.956;6.796;2022-12-31T18:24:02;14.30;99.90
55203;DHT22;41077;52.956;6.796;2022-12-31T18:26:29;14.20;99.90
55203;DHT22;41077;52.956;6.796;2022-12-31T18:28:55;14.20;99.90
55203;DHT22;41077;52.956;6.796;2022-12-31T18:31:27;14.20;99.90
55203;DHT22;41077;52.956;6.796;2022-12-31T18:33:56;14.20;99.90
55203;DHT22;41077;52.956;6.796;2022-12-31T18:36:23;14.10;99.90
55203;DHT22;41077;52.956;6.796;2022-12-31T18:38:49;14.10;99.90
55203;DHT22;41077;52.956;6.796;2022-12-31T18:41:17;14.20;99.90
55203;DHT22;41077;52.956;6.796;2022-12-31T18:43:44;14.10;99.90
55203;DHT22;41077;52.956;6.796;2022-12-31T18:46:14;14.00;99.90
55203;DHT22;41077;52.956;6.796;2022-12-31T18:48:41;14.00;99.90
55203;DHT22;41077;52.956;6.796;2022-12-31T18:51:18;14.00;99.90
55203;DHT22;41077;52.956;6.796;2022-12-31T18:53:44;13.90;99.90
55203;DHT22;41077;52.956;6.796;2022-12-31T18:56:12;13.90;99.90
55203;DHT22;41077;52.956;6.796;2022-12-31T18:58:40;14.00;99.90
55203;DHT22;41077;52.956;6.796;2022-12-31T19:03:46;14.10;99.90
55203;DHT22;41077;52.956;6.796;2022-12-31T19:06:11;14.10;99.90
55203;DHT22;41077;52.956;6.796;2022-12-31T19:08:37;14.20;99.90
55203;DHT22;41077;52.956;6.796;2022-12-31T19:11:03;14.30;99.90
55203;DHT22;41077;52.956;6.796;2022-12-31T19:13:28;14.40;99.90
55203;DHT22;41077;52.956;6.796;2022-12-31T19:15:54;14.40;99.90
55203;DHT22;41077;52.956;6.796;2022-12-31T19:18:20;14.40;99.90
55203;DHT22;41077;52.956;6.796;2022-12-31T19:20:45;14.40;99.90
55203;DHT22;41077;52.956;6.796;2022-12-31T19:23:17;14.50;99.90
55203;DHT22;41077;52.956;6.796;2022-12-31T19:25:44;14.50;99.90
55203;DHT22;41077;52.956;6.796;2022-12-31T19:28:22;14.60;99.90
55203;DHT22;41077;52.956;6.796;2022-12-31T19:30:48;14.50;99.90
55203;DHT22;41077;52.956;6.796;2022-12-31T19:33:15;14.50;99.90
55203;DHT22;41077;52.956;6.796;2022-12-31T19:35:41;14.70;99.90
55203;DHT22;41077;52.956;6.796;2022-12-31T19:38:23;14.60;99.90
55203;DHT22;41077;52.956;6.796;2022-12-31T19:40:50;14.50;99.90
55203;DHT22;41077;52.956;6.796;2022-12-31T19:43:19;14.50;99.90
55203;DHT22;41077;52.956;6.796;2022-12-31T19:45:44;14.40;99.90
55203;DHT22;41077;52.956;6.796;2022-12-31T19:48:16;14.40;99.90
55203;DHT22;41077;52.956;6.796;2022-12-31T19:50:46;14.50;99.90
55203;DHT22;41077;52.956;6.796;2022-12-31T19:53:14;14.50;99.90
55203;DHT22;41077;52.956;6.796;2022-12-31T19:55:41;14.50;99.90
55203;DHT22;41077;52.956;6.796;2022-12-31T19:58:07;14.50;99.90
55203;DHT22;41077;52.956;6.796;2022-12-31T20:00:33;14.50;99.90